Time;durP1;ratioP1;P1;durP2;ratioP2;P2;SDS_P1;SDS_P2;PMS_P1;PMS_P2;Temp;Humidity;BMP_temperature;BMP_pressure;BME280_temperature;BME280_humidity;BME280_pressure;Samples;Min_cycle;Max_cycle;Signal;HPM_P1;HPM_P2
2023/06/20 00:00:49;;;;;;;8.43;6.40;;;24.90;32.80;;;;;;4993410;28;20249;-83
2023/06/20 00:03:16;;;;;;;8.40;6.67;;;24.90;45.30;;;;;;4987300;28;20541;-84
2023/06/20 00:05:42;;;;;;;11.03;6.63;;;25.00;35.50;;;;;;4990732;28;20732;-83
2023/06/20 00:08:08;;;;;;;8.80;7.57;;;24.90;34.00;;;;;;4995196;28;20471;-84
2023/06/20 00:10:34;;;;;;;8.27;6.53;;;24.90;35.20;;;;;;4994894;28;20455;-84
2023/06/20 00:12:59;;;;;;;9.80;6.57;;;24.90;35.40;;;;;;4996705;28;20338;-83
2023/06/20 00:15:27;;;;;;;9.27;6.50;;;24.90;36.10;;;;;;4994822;28;20187;-83
2023/06/20 00:18:00;;;;;;;6.87;6.03;;;24.90;36.80;;;;;;5000823;28;20204;-82
2023/06/20 00:20:27;;;;;;;7.60;6.13;;;24.90;37.90;;;;;;4995240;28;20460;-83
2023/06/20 00:22:53;;;;;;;8.83;7.00;;;24.90;38.80;;;;;;4995339;28;21043;-83
2023/06/20 00:25:18;;;;;;;8.53;6.83;;;24.90;38.60;;;;;;4995196;28;20474;-83
2023/06/20 00:27:44;;;;;;;13.43;7.60;;;24.80;39.20;;;;;;4995613;28;20980;-83
2023/06/20 00:30:10;;;;;;;8.57;6.60;;;24.80;41.20;;;;;;4995429;28;20208;-83
2023/06/20 00:32:36;;;;;;;8.23;6.90;;;24.70;54.60;;;;;;4980914;28;20188;-81
2023/06/20 00:35:02;;;;;;;9.90;7.63;;;24.60;42.30;;;;;;4992194;28;20443;-83
2023/06/20 00:37:27;;;;;;;8.70;6.40;;;24.60;42.20;;;;;;4995596;28;20255;-84
2023/06/20 00:39:53;;;;;;;10.97;7.70;;;24.60;43.20;;;;;;4994625;28;20460;-83
2023/06/20 00:42:23;;;;;;;10.17;7.30;;;24.60;43.10;;;;;;4986342;28;20223;-83
2023/06/20 00:44:49;;;;;;;9.63;6.80;;;24.50;43.20;;;;;;4988272;28;20456;-83
2023/06/20 00:47:16;;;;;;;8.20;6.47;;;24.50;42.90;;;;;;4998451;28;20506;-83
2023/06/20 00:49:43;;;;;;;9.73;7.10;;;24.40;43.50;;;;;;4992855;28;20495;-83
2023/06/20 00:52:09;;;;;;;8.00;7.20;;;24.40;44.20;;;;;;4996000;28;20822;-84
2023/06/20 00:54:35;;;;;;;7.90;6.67;;;24.40;44.00;;;;;;4995832;28;20454;-83
2023/06/20 00:57:01;;;;;;;10.27;7.53;;;24.40;44.20;;;;;;4994838;28;20670;-83
2023/06/20 00:59:27;;;;;;;8.87;6.20;;;24.40;45.00;;;;;;4995191;28;20220;-83
2023/06/20 01:01:53;;;;;;;10.90;7.10;;;24.30;45.60;;;;;;4996413;28;20444;-83
2023/06/20 01:04:20;;;;;;;8.67;6.90;;;24.30;46.10;;;;;;4994019;28;20208;-83
2023/06/20 01:06:59;;;;;;;8.10;6.70;;;24.30;47.50;;;;;;4996813;28;20468;-83
2023/06/20 01:09:53;;;;;;;7.07;6.37;;;24.30;49.40;;;;;;4990483;28;20530;-84
2023/06/20 01:12:44;;;;;;;11.27;7.30;;;24.30;50.00;;;;;;4994232;28;20958;-83
2023/06/20 01:15:21;;;;;;;7.50;6.50;;;24.30;50.10;;;;;;4994768;28;20821;-83
2023/06/20 01:18:18;;;;;;;10.47;6.67;;;24.30;51.60;;;;;;4986497;28;20448;-83
2023/06/20 01:20:50;;;;;;;9.00;6.67;;;24.20;54.70;;;;;;4988995;28;20477;-83
2023/06/20 01:23:29;;;;;;;13.17;6.90;;;24.10;56.80;;;;;;4996314;28;20529;-83
2023/06/20 01:26:04;;;;;;;8.43;6.90;;;24.10;58.80;;;;;;4990363;28;20438;-83
2023/06/20 01:28:40;;;;;;;7.97;5.93;;;24.00;61.80;;;;;;4993372;28;20546;-83
2023/06/20 01:31:11;;;;;;;7.00;5.70;;;24.00;65.80;;;;;;4992032;28;20450;-83
2023/06/20 01:33:56;;;;;;;15.37;5.40;;;24.00;71.00;;;;;;4998064;28;20555;-83
2023/06/20 01:36:23;;;;;;;6.80;6.07;;;23.90;76.50;;;;;;5000093;28;20431;-83
2023/06/20 01:38:56;;;;;;;10.03;6.67;;;23.80;83.10;;;;;;4993606;28;20620;-83
2023/06/20 01:41:23;;;;;;;6.97;6.27;;;23.80;90.00;;;;;;4998115;28;20456;-83
2023/06/20 01:43:50;;;;;;;12.03;5.30;;;23.70;91.80;;;;;;4996945;28;20445;-83
2023/06/20 01:46:19;;;;;;;8.10;6.23;;;23.70;94.70;;;;;;4998640;28;20533;-84
2023/06/20 01:48:47;;;;;;;9.00;5.57;;;23.70;97.70;;;;;;5006876;28;20485;-83
2023/06/20 01:51:14;;;;;;;6.43;5.43;;;23.60;99.90;;;;;;5000668;28;20441;-83
2023/06/20 01:53:42;;;;;;;7.20;4.87;;;23.60;99.90;;;;;;5000258;28;20444;-84
2023/06/20 01:56:10;;;;;;;8.03;5.70;;;23.60;99.90;;;;;;4999509;28;20445;-83
2023/06/20 01:58:40;;;;;;;6.30;5.47;;;23.60;99.90;;;;;;4999698;28;20581;-83
2023/06/20 02:01:07;;;;;;;7.73;5.33;;;23.60;99.90;;;;;;4997756;28;20450;-83
2023/06/20 02:03:33;;;;;;;6.67;5.57;;;23.60;99.90;;;;;;5000328;28;20501;-83
2023/06/20 02:06:00;;;;;;;6.63;5.33;;;23.60;99.90;;;;;;4998340;28;20446;-83
2023/06/20 02:08:28;;;;;;;7.00;5.20;;;23.60;99.90;;;;;;5000275;28;20477;-83
2023/06/20 02:10:54;;;;;;;5.97;4.97;;;23.50;99.90;;;;;;5000126;28;20461;-84
2023/06/20 02:13:22;;;;;;;12.40;5.10;;;23.50;99.90;;;;;;4999014;28;20993;-83
2023/06/20 02:15:51;;;;;;;5.13;4.63;;;23.50;99.90;;;;;;4998746;28;20469;-82
2023/06/20 02:18:17;;;;;;;6.23;5.50;;;23.50;99.90;;;;;;4995159;28;20456;-81
2023/06/20 02:20:42;;;;;;;5.80;4.83;;;23.50;99.90;;;;;;5000763;28;20469;-83
2023/06/20 02:23:09;;;;;;;5.80;5.03;;;23.50;99.90;;;;;;4999748;28;20199;-83
2023/06/20 02:25:37;;;;;;;10.73;5.13;;;23.50;99.90;;;;;;4994464;28;20187;-83
2023/06/20 02:28:04;;;;;;;5.57;5.00;;;23.50;99.90;;;;;;4999047;28;20500;-83
2023/06/20 02:30:31;;;;;;;7.13;4.20;;;23.50;99.90;;;;;;4998834;28;20468;-83
2023/06/20 02:32:59;;;;;;;6.33;5.00;;;23.50;99.90;;;;;;4995953;28;20438;-83
2023/06/20 02:35:26;;;;;;;5.87;5.23;;;23.50;99.90;;;;;;4997873;28;20438;-82
2023/06/20 02:37:56;;;;;;;5.97;4.80;;;23.50;99.90;;;;;;4998294;28;20470;-81
2023/06/20 02:40:25;;;;;;;5.13;4.63;;;23.50;99.90;;;;;;4996631;28;20464;-84
2023/06/20 02:42:50;;;;;;;7.30;6.03;;;23.50;99.90;;;;;;4998190;28;20449;-83
2023/06/20 02:45:17;;;;;;;6.57;5.00;;;23.50;99.90;;;;;;4997540;28;20445;-83
2023/06/20 02:48:05;;;;;;;7.10;5.43;;;23.50;99.90;;;;;;4995905;28;20203;-82
2023/06/20 02:51:07;;;;;;;6.03;5.43;;;23.50;99.90;;;;;;4986244;28;20477;-83
2023/06/20 02:53:39;;;;;;;6.93;5.50;;;23.50;99.90;;;;;;4998097;28;20533;-83
2023/06/20 02:56:10;;;;;;;7.17;6.00;;;23.50;99.90;;;;;;4990755;28;20453;-83
2023/06/20 02:58:38;;;;;;;9.87;6.57;;;23.40;99.90;;;;;;4997197;28;20485;-85
2023/06/20 03:01:04;;;;;;;7.67;5.80;;;23.40;99.90;;;;;;4999329;28;20484;-83
2023/06/20 03:03:38;;;;;;;7.83;5.87;;;23.30;99.90;;;;;;4995979;28;20488;-81
2023/06/20 03:06:06;;;;;;;7.33;6.60;;;23.20;99.90;;;;;;4994775;28;20196;-83
2023/06/20 03:08:33;;;;;;;6.60;5.87;;;23.10;99.90;;;;;;4987841;28;20504;-83
2023/06/20 03:11:00;;;;;;;7.40;5.60;;;23.00;99.90;;;;;;4990020;28;20465;-84
2023/06/20 03:13:26;;;;;;;7.47;6.30;;;22.90;1.00;;;;;;4996412;28;20437;-83
2023/06/20 03:15:52;;;;;;;10.07;6.03;;;22.80;1.00;;;;;;4997217;28;20448;-83
2023/06/20 03:18:18;;;;;;;11.53;7.13;;;22.70;1.00;;;;;;5001002;28;20543;-82
2023/06/20 03:20:48;;;;;;;10.43;6.60;;;22.60;99.90;;;;;;4991292;28;20735;-83
2023/06/20 03:23:14;;;;;;;7.53;6.40;;;22.50;1.00;;;;;;4993521;28;20444;-83
2023/06/20 03:25:40;;;;;;;6.20;5.60;;;22.40;99.90;;;;;;4996304;28;20459;-82
2023/06/20 03:28:06;;;;;;;9.73;7.30;;;22.30;1.00;;;;;;4995364;28;20840;-83
2023/06/20 03:30:31;;;;;;;6.37;5.70;;;22.20;1.00;;;;;;4995479;28;20204;-83
2023/06/20 03:32:57;;;;;;;8.70;6.53;;;22.10;1.00;;;;;;4996148;28;20195;-83
2023/06/20 03:35:22;;;;;;;6.90;5.40;;;21.90;15.00;;;;;;4990492;28;20264;-83
2023/06/20 03:37:48;;;;;;;6.70;5.97;;;21.80;12.40;;;;;;4993907;28;20650;-82
2023/06/20 03:40:13;;;;;;;7.37;5.30;;;21.70;28.70;;;;;;4992925;28;20235;-83
2023/06/20 03:42:39;;;;;;;4.63;4.20;;;21.60;1.00;;;;;;4994597;28;20211;-83
2023/06/20 03:45:05;;;;;;;5.20;4.70;;;21.50;1.00;;;;;;4993879;28;20288;-83
2023/06/20 03:47:30;;;;;;;7.33;4.50;;;21.50;1.00;;;;;;4998457;28;20222;-83
2023/06/20 03:49:56;;;;;;;6.50;4.37;;;21.40;1.00;;;;;;4993501;28;20477;-84
2023/06/20 03:52:21;;;;;;;6.40;4.23;;;21.40;1.00;;;;;;4995484;28;20192;-83
2023/06/20 03:54:47;;;;;;;5.10;4.60;;;21.50;1.00;;;;;;4989871;28;20187;-82
2023/06/20 03:57:12;;;;;;;4.77;4.30;;;21.50;99.90;;;;;;4995233;28;20276;-83
2023/06/20 03:59:38;;;;;;;8.67;4.70;;;21.50;99.90;;;;;;4994526;28;20203;-83
2023/06/20 04:02:04;;;;;;;5.43;4.63;;;21.50;77.20;;;;;;4995722;28;20216;-83
2023/06/20 04:04:29;;;;;;;5.20;4.33;;;21.60;1.00;;;;;;4983555;28;20227;-83
2023/06/20 04:06:55;;;;;;;4.87;4.10;;;21.60;1.00;;;;;;4993175;28;20192;-83
2023/06/20 04:09:25;;;;;;;4.93;3.77;;;21.60;1.00;;;;;;4992977;28;20215;-83
2023/06/20 04:11:50;;;;;;;5.10;3.90;;;21.70;99.90;;;;;;4991466;28;20185;-83
2023/06/20 04:14:16;;;;;;;4.47;4.07;;;21.60;99.90;;;;;;4993875;28;20474;-83
2023/06/20 04:16:41;;;;;;;5.13;4.60;;;21.60;1.00;;;;;;4993838;28;20186;-83
2023/06/20 04:19:07;;;;;;;5.50;3.70;;;21.60;1.00;;;;;;4989373;28;20726;-83
2023/06/20 04:21:33;;;;;;;5.33;4.20;;;21.60;1.00;;;;;;4990908;28;20200;-83
2023/06/20 04:23:58;;;;;;;5.77;4.10;;;21.70;99.90;;;;;;5005706;28;20181;-81
2023/06/20 04:26:24;;;;;;;5.90;3.93;;;21.70;99.90;;;;;;4991933;28;20196;-83
2023/06/20 04:28:50;;;;;;;4.73;4.30;;;21.70;39.70;;;;;;4992344;28;20281;-83
2023/06/20 04:31:15;;;;;;;4.30;3.90;;;21.80;1.00;;;;;;4991075;28;20663;-83
2023/06/20 04:33:43;;;;;;;7.63;4.07;;;21.80;1.00;;;;;;4993361;28;20326;-83
2023/06/20 04:36:13;;;;;;;9.30;4.50;;;21.80;1.00;;;;;;4992497;28;20191;-83
2023/06/20 04:38:39;;;;;;;5.17;3.83;;;21.90;99.90;;;;;;4992456;28;20462;-82
2023/06/20 04:41:04;;;;;;;4.60;3.50;;;21.90;99.90;;;;;;4988870;28;20501;-83
2023/06/20 04:43:30;;;;;;;5.23;4.70;;;21.90;99.90;;;;;;4993886;28;20858;-83
2023/06/20 04:45:56;;;;;;;5.87;4.60;;;21.90;99.90;;;;;;4989950;28;20197;-83
2023/06/20 04:48:29;;;;;;;5.67;4.83;;;21.90;1.00;;;;;;4994074;28;20211;-84
2023/06/20 04:50:55;;;;;;;5.80;4.40;;;21.90;1.00;;;;;;4992557;28;21016;-85
2023/06/20 04:53:22;;;;;;;7.27;4.73;;;22.00;1.00;;;;;;4990122;28;20427;-86
2023/06/20 04:55:48;;;;;;;5.30;4.30;;;22.00;1.00;;;;;;4994547;28;20427;-85
2023/06/20 04:58:14;;;;;;;7.07;4.60;;;22.10;1.00;;;;;;4993646;28;20489;-85
2023/06/20 05:00:40;;;;;;;6.00;4.10;;;22.20;99.90;;;;;;4986227;28;21076;-85
2023/06/20 05:03:05;;;;;;;7.23;4.77;;;22.40;16.20;;;;;;4988766;28;20181;-84
2023/06/20 05:05:31;;;;;;;7.33;4.97;;;22.50;1.00;;;;;;4985682;28;20225;-85
2023/06/20 05:07:57;;;;;;;4.37;3.97;;;22.70;99.90;;;;;;4984609;28;20214;-85
2023/06/20 05:10:23;;;;;;;5.30;4.80;;;23.00;33.10;;;;;;4979766;28;20214;-85
2023/06/20 05:12:48;;;;;;;5.73;4.53;;;23.20;1.00;;;;;;4986782;28;20295;-85
2023/06/20 05:15:14;;;;;;;6.67;4.50;;;23.40;99.90;;;;;;4978521;28;20493;-85
2023/06/20 05:17:39;;;;;;;5.90;4.63;;;23.60;99.90;;;;;;4998769;28;20643;-83
2023/06/20 05:20:06;;;;;;;6.13;5.00;;;23.70;1.00;;;;;;4985808;28;20243;-83
2023/06/20 05:22:33;;;;;;;6.80;5.33;;;23.90;1.00;;;;;;4980506;28;20187;-84
2023/06/20 05:24:59;;;;;;;6.67;5.33;;;24.00;99.90;;;;;;4980234;28;20519;-84
2023/06/20 05:27:24;;;;;;;7.23;4.83;;;24.10;99.90;;;;;;4979671;28;20488;-84
2023/06/20 05:29:50;;;;;;;4.87;4.47;;;24.20;99.90;;;;;;4982170;28;20661;-83
2023/06/20 05:32:16;;;;;;;8.90;5.10;;;24.30;99.90;;;;;;4984284;28;20202;-84
2023/06/20 05:34:41;;;;;;;5.83;5.23;;;24.30;99.90;;;;;;4980067;28;20178;-83
2023/06/20 05:37:07;;;;;;;6.20;5.03;;;24.30;99.90;;;;;;4992989;28;20201;-83
2023/06/20 05:39:32;;;;;;;6.67;6.00;;;24.30;99.90;;;;;;4978781;28;20206;-84
2023/06/20 05:41:58;;;;;;;6.03;5.20;;;24.30;99.90;;;;;;4979232;28;20185;-83
2023/06/20 05:44:23;;;;;;;5.23;4.77;;;24.40;95.20;;;;;;4980183;28;20189;-82
2023/06/20 05:46:49;;;;;;;5.60;4.90;;;24.50;66.40;;;;;;4987607;28;20180;-81
2023/06/20 05:49:15;;;;;;;6.73;5.10;;;24.50;99.50;;;;;;4978161;28;20222;-83
2023/06/20 05:51:44;;;;;;;5.20;4.70;;;24.70;55.80;;;;;;4982528;28;20214;-83
2023/06/20 05:54:10;;;;;;;6.07;4.80;;;24.90;19.70;;;;;;4989584;28;20465;-83
2023/06/20 05:56:35;;;;;;;4.70;4.30;;;25.10;1.00;;;;;;4995997;28;20872;-83
2023/06/20 05:59:01;;;;;;;5.70;4.83;;;25.20;1.00;;;;;;4992458;28;20549;-83
2023/06/20 06:01:26;;;;;;;6.80;4.90;;;25.40;1.00;;;;;;5006910;28;20184;-83
2023/06/20 06:03:52;;;;;;;16.83;5.53;;;25.80;1.00;;;;;;4998435;28;20279;-83
2023/06/20 06:06:18;;;;;;;9.17;4.20;;;26.10;99.90;;;;;;4994296;28;20192;-84
2023/06/20 06:08:43;;;;;;;5.97;5.40;;;26.50;99.90;;;;;;5002915;28;21463;-83
2023/06/20 06:11:09;;;;;;;5.30;4.80;;;26.80;99.90;;;;;;4998319;28;20190;-84
2023/06/20 06:13:34;;;;;;;4.77;4.37;;;27.20;99.90;;;;;;4994370;28;20266;-84
2023/06/20 06:16:00;;;;;;;7.37;5.13;;;27.80;99.90;;;;;;4996622;28;20196;-84
2023/06/20 06:18:26;;;;;;;6.40;4.90;;;29.00;99.90;;;;;;5009135;28;20180;-84
2023/06/20 06:20:51;;;;;;;5.53;4.17;;;31.40;99.90;;;;;;5000233;28;20598;-85
2023/06/20 06:23:17;;;;;;;4.50;4.10;;;34.10;99.90;;;;;;4996841;28;20192;-85
2023/06/20 06:25:44;;;;;;;5.67;4.40;;;36.40;99.90;;;;;;4992459;28;20673;-85
2023/06/20 06:28:10;;;;;;;5.70;3.63;;;38.60;99.90;;;;;;4993075;28;20302;-85
2023/06/20 06:30:36;;;;;;;4.73;3.63;;;40.60;99.90;;;;;;5003265;28;20532;-85
2023/06/20 06:33:03;;;;;;;3.97;3.50;;;42.40;99.90;;;;;;4997881;28;20179;-84
2023/06/20 06:35:30;;;;;;;3.50;3.20;;;43.90;96.70;;;;;;4987785;28;20454;-84
2023/06/20 06:37:57;;;;;;;5.20;3.70;;;45.20;89.40;;;;;;4993325;28;20505;-85
2023/06/20 06:40:23;;;;;;;3.63;3.33;;;46.10;72.50;;;;;;5001649;28;20454;-85
2023/06/20 06:42:48;;;;;;;4.20;3.40;;;46.40;57.20;;;;;;4994000;28;20438;-85
2023/06/20 06:45:14;;;;;;;3.57;3.20;;;47.20;49.10;;;;;;4994270;28;20198;-85
2023/06/20 06:47:40;;;;;;;3.93;3.63;;;47.90;43.10;;;;;;4995426;28;20286;-85
2023/06/20 06:50:06;;;;;;;3.30;3.10;;;48.60;35.80;;;;;;4992712;28;20258;-85
2023/06/20 06:52:34;;;;;;;3.37;3.17;;;49.10;28.80;;;;;;4988646;28;20190;-85
2023/06/20 06:55:00;;;;;;;3.63;3.37;;;49.90;24.60;;;;;;4986125;28;20439;-86
2023/06/20 06:57:25;;;;;;;3.10;2.90;;;50.30;20.40;;;;;;4994481;28;20619;-85
2023/06/20 06:59:51;;;;;;;3.57;3.00;;;50.70;16.10;;;;;;4993004;28;20207;-86
2023/06/20 07:02:16;;;;;;;3.73;3.50;;;50.70;12.00;;;;;;4990207;28;20233;-87
2023/06/20 07:04:42;;;;;;;4.30;3.10;;;50.80;8.80;;;;;;4990668;28;20187;-86
2023/06/20 07:07:07;;;;;;;5.30;3.43;;;50.90;5.80;;;;;;4986932;28;20182;-85
2023/06/20 07:09:33;;;;;;;3.60;3.30;;;49.90;2.40;;;;;;4988307;28;20218;-84
2023/06/20 07:11:58;;;;;;;3.70;3.23;;;48.20;1.00;;;;;;4993209;28;20187;-86
2023/06/20 07:14:26;;;;;;;3.23;2.93;;;49.10;1.00;;;;;;4987112;28;20219;-85
2023/06/20 07:16:52;;;;;;;3.73;3.30;;;49.80;1.00;;;;;;4990811;28;20190;-85
2023/06/20 07:19:18;;;;;;;3.33;3.03;;;50.70;1.00;;;;;;4991435;28;20554;-86
2023/06/20 07:21:43;;;;;;;3.20;3.00;;;50.90;1.00;;;;;;4990031;28;20306;-86
2023/06/20 07:24:09;;;;;;;4.07;3.30;;;51.40;1.00;;;;;;4993240;28;20242;-85
2023/06/20 07:26:34;;;;;;;3.70;3.40;;;51.80;1.00;;;;;;4986136;28;20676;-86
2023/06/20 07:29:00;;;;;;;3.97;3.67;;;52.40;1.00;;;;;;4980330;28;20577;-86
2023/06/20 07:31:25;;;;;;;3.77;3.43;;;52.20;1.00;;;;;;4977494;28;20176;-86
2023/06/20 07:33:51;;;;;;;3.92;3.63;;;52.40;1.00;;;;;;4996772;28;20234;-87
2023/06/20 07:36:16;;;;;;;3.67;3.47;;;52.80;1.00;;;;;;4994503;28;20217;-86
2023/06/20 07:38:42;;;;;;;3.67;3.42;;;53.20;1.00;;;;;;5002569;28;20762;-86
2023/06/20 07:41:07;;;;;;;4.30;3.90;;;53.30;1.00;;;;;;4986442;28;20186;-84
2023/06/20 07:43:33;;;;;;;3.67;3.40;;;53.70;1.00;;;;;;4981975;28;20183;-83
2023/06/20 07:45:58;;;;;;;4.03;3.72;;;54.20;1.00;;;;;;4980813;28;20214;-85
2023/06/20 07:48:25;;;;;;;4.73;4.33;;;54.50;1.00;;;;;;4982372;28;20215;-84
2023/06/20 07:50:50;;;;;;;4.30;4.00;;;51.50;1.00;;;;;;4986306;28;20221;-85
2023/06/20 07:53:16;;;;;;;3.47;3.13;;;49.50;1.00;;;;;;4973656;28;20431;-84
2023/06/20 07:55:41;;;;;;;4.67;4.37;;;49.80;1.00;;;;;;4981718;28;20186;-83
2023/06/20 07:58:07;;;;;;;4.73;4.33;;;50.30;1.00;;;;;;4978583;28;22508;-82
2023/06/20 08:00:33;;;;;;;5.17;4.73;;;51.00;1.00;;;;;;4988598;28;20221;-83
2023/06/20 08:02:58;;;;;;;5.17;4.60;;;50.90;1.00;;;;;;4987729;28;20273;-82
2023/06/20 08:05:24;;;;;;;4.17;3.77;;;51.20;1.00;;;;;;4990020;28;20661;-82
2023/06/20 08:07:49;;;;;;;4.80;4.40;;;51.50;1.00;;;;;;4998538;28;21691;-83
2023/06/20 08:10:15;;;;;;;6.13;4.50;;;51.20;1.00;;;;;;4988221;28;20199;-84
2023/06/20 08:12:41;;;;;;;4.97;4.50;;;51.00;1.00;;;;;;5005015;28;20195;-83
2023/06/20 08:15:07;;;;;;;5.10;4.67;;;49.30;1.00;;;;;;4981379;28;20233;-83
2023/06/20 08:17:32;;;;;;;7.90;4.77;;;49.00;1.00;;;;;;4991091;28;20330;-82
2023/06/20 08:19:59;;;;;;;5.10;4.70;;;49.50;1.00;;;;;;4984455;28;20565;-83
2023/06/20 08:22:28;;;;;;;5.27;4.57;;;50.40;1.00;;;;;;4987277;28;20595;-83
2023/06/20 08:24:54;;;;;;;5.13;4.73;;;51.40;1.00;;;;;;4983681;28;20443;-84
2023/06/20 08:27:19;;;;;;;5.17;4.57;;;52.20;1.00;;;;;;4988418;28;20217;-83
2023/06/20 08:29:45;;;;;;;6.70;4.33;;;52.60;1.00;;;;;;4981078;28;20198;-83
2023/06/20 08:32:10;;;;;;;7.03;4.77;;;52.40;1.00;;;;;;4987930;28;20187;-83
2023/06/20 08:34:36;;;;;;;6.80;4.83;;;49.70;1.00;;;;;;4982252;28;20183;-82
2023/06/20 08:37:02;;;;;;;6.73;5.10;;;49.30;1.00;;;;;;4989912;28;20179;-83
2023/06/20 08:39:29;;;;;;;6.30;4.53;;;50.00;1.00;;;;;;4985401;28;20198;-83
2023/06/20 08:41:54;;;;;;;5.97;4.67;;;48.80;1.00;;;;;;5003057;28;20518;-83
2023/06/20 08:44:20;;;;;;;4.70;4.40;;;49.20;1.00;;;;;;4985823;28;20450;-84
2023/06/20 08:46:46;;;;;;;5.30;4.80;;;50.30;1.00;;;;;;4988005;28;20606;-83
2023/06/20 08:49:14;;;;;;;5.50;4.83;;;51.30;1.00;;;;;;4982561;28;20290;-83
2023/06/20 08:51:43;;;;;;;4.47;4.07;;;51.80;1.00;;;;;;4979646;28;20955;-84
2023/06/20 08:54:13;;;;;;;4.60;4.20;;;52.00;1.00;;;;;;4975965;28;20435;-83
2023/06/20 08:56:39;;;;;;;5.60;5.10;;;52.20;1.00;;;;;;4988569;28;20171;-85
2023/06/20 08:59:05;;;;;;;6.00;5.50;;;52.30;1.00;;;;;;4985979;28;20760;-84
2023/06/20 09:01:30;;;;;;;5.43;4.83;;;52.60;1.00;;;;;;4975492;28;20199;-84
2023/06/20 09:04:10;;;;;;;4.97;4.00;;;52.90;1.00;;;;;;4978901;28;20191;-84
2023/06/20 09:06:39;;;;;;;5.57;5.07;;;52.80;1.00;;;;;;4982274;28;20274;-83
2023/06/20 09:09:17;;;;;;;5.30;4.80;;;51.20;1.00;;;;;;4983955;28;20898;-82
2023/06/20 09:11:48;;;;;;;6.60;5.00;;;48.60;1.00;;;;;;4988730;28;20443;-82
2023/06/20 09:14:13;;;;;;;6.00;5.50;;;47.30;1.00;;;;;;4980521;28;20446;-82
2023/06/20 09:16:41;;;;;;;6.23;4.83;;;47.80;1.00;;;;;;4985447;28;20450;-82
2023/06/20 09:19:06;;;;;;;5.20;4.80;;;48.00;1.00;;;;;;4988705;28;20242;-82
2023/06/20 09:21:36;;;;;;;5.03;4.60;;;48.90;1.00;;;;;;4991490;28;20540;-82
2023/06/20 09:24:03;;;;;;;6.03;5.43;;;49.40;1.00;;;;;;4985367;28;20278;-82
2023/06/20 09:26:30;;;;;;;5.97;5.40;;;48.30;1.00;;;;;;4987676;28;20446;-82
2023/06/20 09:29:14;;;;;;;5.80;5.30;;;47.80;1.00;;;;;;4988468;28;20470;-82
2023/06/20 09:31:46;;;;;;;6.00;5.50;;;45.90;1.00;;;;;;4997331;28;20559;-81
2023/06/20 09:34:12;;;;;;;6.60;5.90;;;44.10;1.00;;;;;;4997307;28;20477;-82
2023/06/20 09:36:39;;;;;;;7.83;5.80;;;43.50;1.00;;;;;;4985221;28;20439;-82
2023/06/20 09:39:20;;;;;;;6.87;5.83;;;43.50;1.00;;;;;;4989918;28;20461;-84
2023/06/20 09:41:50;;;;;;;5.37;4.97;;;43.90;1.00;;;;;;4986908;28;20441;-83
2023/06/20 09:44:20;;;;;;;6.10;4.90;;;45.00;1.00;;;;;;4980716;28;20443;-83
2023/06/20 09:46:46;;;;;;;5.33;4.70;;;46.30;1.00;;;;;;4985124;28;20440;-84
2023/06/20 09:49:16;;;;;;;3.73;3.50;;;47.10;1.00;;;;;;4982652;28;20466;-83
2023/06/20 09:51:49;;;;;;;3.67;3.10;;;45.90;1.00;;;;;;4983120;28;20462;-84
2023/06/20 09:54:42;;;;;;;4.00;3.60;;;45.90;1.00;;;;;;4977568;28;20432;-83
2023/06/20 09:57:11;;;;;;;3.77;3.10;;;46.40;1.00;;;;;;4986559;28;21097;-84
2023/06/20 09:59:41;;;;;;;3.37;3.17;;;47.30;1.00;;;;;;4980487;28;20451;-83
2023/06/20 10:02:08;;;;;;;3.10;2.80;;;48.00;1.00;;;;;;4986686;28;20450;-84
2023/06/20 10:04:42;;;;;;;4.60;3.03;;;48.30;1.00;;;;;;4989206;28;20445;-83
2023/06/20 10:07:14;;;;;;;4.20;3.27;;;48.40;1.00;;;;;;4987648;28;20435;-83
2023/06/20 10:09:48;;;;;;;3.00;2.80;;;48.50;1.00;;;;;;4987749;28;20446;-83
2023/06/20 10:12:15;;;;;;;3.07;2.87;;;48.70;1.00;;;;;;4978186;28;20431;-84
2023/06/20 10:14:41;;;;;;;3.17;2.90;;;48.80;1.00;;;;;;4976306;28;20438;-84
2023/06/20 10:17:14;;;;;;;3.00;2.80;;;49.00;1.00;;;;;;4986980;28;20445;-84
2023/06/20 10:19:51;;;;;;;3.30;3.00;;;49.00;1.00;;;;;;4985965;28;20207;-83
2023/06/20 10:22:37;;;;;;;3.37;3.13;;;48.80;1.00;;;;;;4986096;28;20442;-85
2023/06/20 10:25:12;;;;;;;3.47;2.80;;;48.70;1.00;;;;;;4983182;28;20806;-85
2023/06/20 10:27:39;;;;;;;6.90;3.70;;;48.80;1.00;;;;;;4986762;28;20815;-85
2023/06/20 10:30:06;;;;;;;3.27;2.97;;;48.90;1.00;;;;;;4982630;28;21274;-84
2023/06/20 10:32:32;;;;;;;3.03;2.83;;;48.80;1.00;;;;;;4986756;28;20442;-84
2023/06/20 10:35:04;;;;;;;3.03;2.83;;;48.80;1.00;;;;;;4981854;28;20446;-84
2023/06/20 10:37:29;;;;;;;2.90;2.70;;;48.80;1.00;;;;;;4984785;28;20192;-85
2023/06/20 10:39:57;;;;;;;3.40;3.00;;;48.50;1.00;;;;;;4989097;28;21143;-84
2023/06/20 10:42:42;;;;;;;2.90;2.70;;;48.60;1.00;;;;;;4985324;28;20638;-84
2023/06/20 10:45:26;;;;;;;3.10;2.70;;;48.80;1.00;;;;;;5002840;28;20447;-84
2023/06/20 10:47:53;;;;;;;3.97;2.97;;;48.80;1.00;;;;;;4990125;28;20465;-84
2023/06/20 10:50:19;;;;;;;3.07;2.87;;;48.60;1.00;;;;;;4985835;28;20478;-85
2023/06/20 10:52:45;;;;;;;3.40;3.10;;;47.50;1.00;;;;;;4980273;28;20505;-84
2023/06/20 10:55:24;;;;;;;2.90;2.70;;;47.20;1.00;;;;;;4982155;28;20805;-84
2023/06/20 10:57:50;;;;;;;2.77;2.57;;;46.90;1.00;;;;;;5001478;28;20740;-84
2023/06/20 11:00:18;;;;;;;5.37;3.27;;;47.10;1.00;;;;;;5002696;28;20462;-84
2023/06/20 11:02:51;;;;;;;3.00;2.80;;;46.20;1.00;;;;;;4988961;28;20438;-85
2023/06/20 11:05:17;;;;;;;3.17;2.97;;;46.00;1.00;;;;;;4992496;28;20430;-84
2023/06/20 11:07:52;;;;;;;3.00;2.80;;;46.00;1.00;;;;;;4988679;28;20525;-83
2023/06/20 11:10:25;;;;;;;4.97;2.70;;;46.00;1.00;;;;;;4992290;28;20522;-84
2023/06/20 11:12:50;;;;;;;3.40;3.10;;;45.50;1.00;;;;;;4976349;28;20423;-85
2023/06/20 11:15:21;;;;;;;3.57;2.57;;;45.70;1.00;;;;;;4989153;28;20435;-84
2023/06/20 11:17:47;;;;;;;4.47;2.80;;;46.10;1.00;;;;;;4995757;28;20214;-83
2023/06/20 11:20:13;;;;;;;3.27;3.00;;;46.50;1.00;;;;;;4992664;28;20466;-85
2023/06/20 11:22:39;;;;;;;4.87;2.70;;;46.80;1.00;;;;;;4984024;28;20952;-84
2023/06/20 11:25:07;;;;;;;3.60;3.30;;;46.80;1.00;;;;;;4993113;28;20187;-84
2023/06/20 11:27:33;;;;;;;4.20;2.60;;;46.90;1.00;;;;;;4990154;28;20821;-84
2023/06/20 11:29:59;;;;;;;3.57;2.90;;;47.00;1.00;;;;;;4992185;28;20509;-84
2023/06/20 11:32:24;;;;;;;3.83;3.17;;;47.00;1.00;;;;;;4992595;28;20418;-84
2023/06/20 11:35:02;;;;;;;3.43;2.80;;;47.10;1.00;;;;;;4991408;28;20308;-85
2023/06/20 11:37:28;;;;;;;2.97;2.73;;;46.70;1.00;;;;;;4993904;28;20175;-85
2023/06/20 11:39:54;;;;;;;3.10;2.90;;;45.50;1.00;;;;;;4991258;28;20471;-85
2023/06/20 11:42:20;;;;;;;3.57;3.30;;;44.90;1.00;;;;;;4992397;28;20270;-85
2023/06/20 11:44:45;;;;;;;3.47;3.17;;;44.80;1.00;;;;;;4993309;28;20184;-85
2023/06/20 11:47:11;;;;;;;3.73;3.00;;;44.90;1.00;;;;;;4991241;28;20455;-84
2023/06/20 11:49:40;;;;;;;2.80;2.60;;;44.40;1.00;;;;;;4989865;28;20217;-83
2023/06/20 11:52:07;;;;;;;4.80;2.87;;;44.50;1.00;;;;;;4992380;28;20606;-85
2023/06/20 11:54:51;;;;;;;3.00;2.80;;;44.50;1.00;;;;;;4989751;28;20434;-85
2023/06/20 11:57:29;;;;;;;5.03;2.77;;;44.90;1.00;;;;;;4984672;28;20480;-85
2023/06/20 11:59:58;;;;;;;2.80;2.60;;;44.70;1.00;;;;;;4992340;28;20811;-85
2023/06/20 12:02:26;;;;;;;4.90;3.40;;;44.80;1.00;;;;;;4992378;28;21046;-85
2023/06/20 12:04:56;;;;;;;3.13;2.93;;;44.40;1.00;;;;;;4991148;28;20462;-84
2023/06/20 12:07:25;;;;;;;5.20;3.00;;;43.50;1.00;;;;;;4991279;28;20427;-84
2023/06/20 12:09:50;;;;;;;3.57;3.10;;;42.50;1.00;;;;;;4990935;28;21003;-84
2023/06/20 12:12:16;;;;;;;3.00;2.70;;;42.50;1.00;;;;;;4989777;28;20443;-84
2023/06/20 12:14:41;;;;;;;3.07;2.73;;;42.30;1.00;;;;;;4992571;28;20195;-84
2023/06/20 12:17:07;;;;;;;3.43;3.13;;;41.90;1.00;;;;;;4997474;28;20176;-84
2023/06/20 12:19:32;;;;;;;3.63;3.33;;;41.80;1.00;;;;;;4992640;28;20211;-84
2023/06/20 12:21:59;;;;;;;3.03;2.83;;;41.70;1.00;;;;;;4988462;28;20673;-84
2023/06/20 12:24:27;;;;;;;3.50;3.20;;;40.90;1.00;;;;;;4993262;28;20233;-84
2023/06/20 12:26:53;;;;;;;3.13;2.93;;;40.40;1.00;;;;;;4991675;28;20431;-85
2023/06/20 12:29:19;;;;;;;3.03;2.83;;;40.50;1.00;;;;;;4992915;28;20854;-83
2023/06/20 12:31:44;;;;;;;3.60;3.30;;;40.80;1.00;;;;;;4991526;28;20422;-85
2023/06/20 12:34:10;;;;;;;3.50;3.20;;;41.10;1.00;;;;;;4992379;28;20780;-85
2023/06/20 12:36:35;;;;;;;3.10;2.90;;;41.50;1.00;;;;;;4992349;28;20184;-85
2023/06/20 12:39:01;;;;;;;5.10;2.73;;;41.30;1.00;;;;;;4987434;28;20212;-85
2023/06/20 12:41:36;;;;;;;2.83;2.63;;;41.20;1.00;;;;;;5001299;28;20183;-84
2023/06/20 12:44:03;;;;;;;3.47;3.17;;;41.60;1.00;;;;;;4974822;28;20195;-85
2023/06/20 12:46:29;;;;;;;3.60;3.23;;;41.90;1.00;;;;;;4990944;28;20457;-85
2023/06/20 12:48:55;;;;;;;3.80;3.30;;;42.20;1.00;;;;;;4985449;28;20478;-83
2023/06/20 12:51:21;;;;;;;4.10;3.70;;;42.40;1.00;;;;;;4984620;28;20410;-85
2023/06/20 12:53:47;;;;;;;3.50;3.20;;;42.60;1.00;;;;;;4991124;28;20194;-84
2023/06/20 12:56:13;;;;;;;3.10;2.90;;;42.60;1.00;;;;;;4987351;28;20447;-85